sensor_id;sensor_type;location;lat;lon;timestamp;P1;durP1;ratioP1;P2;durP2;ratioP2
56667;SDS011;42542;48.360;10.958;2023-01-01T00:01:46;123.47;;;55.60;;
56667;SDS011;42542;48.360;10.958;2023-01-01T00:04:48;134.30;;;57.90;;
56667;SDS011;42542;48.360;10.958;2023-01-01T00:07:49;139.50;;;62.72;;
56667;SDS011;42542;48.360;10.958;2023-01-01T00:10:51;153.87;;;69.67;;
56667;SDS011;42542;48.360;10.958;2023-01-01T00:13:52;184.80;;;83.75;;
56667;SDS011;42542;48.360;10.958;2023-01-01T00:16:54;205.55;;;92.07;;
56667;SDS011;42542;48.360;10.958;2023-01-01T00:19:56;213.23;;;98.10;;
56667;SDS011;42542;48.360;10.958;2023-01-01T00:22:57;212.60;;;96.97;;
56667;SDS011;42542;48.360;10.958;2023-01-01T00:25:59;226.93;;;101.97;;
56667;SDS011;42542;48.360;10.958;2023-01-01T00:29:01;235.10;;;106.57;;
56667;SDS011;42542;48.360;10.958;2023-01-01T00:32:04;246.63;;;110.18;;
56667;SDS011;42542;48.360;10.958;2023-01-01T00:35:11;242.52;;;108.45;;
56667;SDS011;42542;48.360;10.958;2023-01-01T00:38:13;226.23;;;98.85;;
56667;SDS011;42542;48.360;10.958;2023-01-01T00:41:15;224.90;;;100.33;;
56667;SDS011;42542;48.360;10.958;2023-01-01T00:44:17;228.07;;;95.65;;
56667;SDS011;42542;48.360;10.958;2023-01-01T00:47:19;223.75;;;96.53;;
56667;SDS011;42542;48.360;10.958;2023-01-01T00:50:21;228.73;;;97.80;;
56667;SDS011;42542;48.360;10.958;2023-01-01T00:53:22;213.70;;;93.70;;
56667;SDS011;42542;48.360;10.958;2023-01-01T00:56:24;218.13;;;95.35;;
56667;SDS011;42542;48.360;10.958;2023-01-01T00:59:25;218.38;;;93.18;;
56667;SDS011;42542;48.360;10.958;2023-01-01T01:02:29;197.75;;;87.25;;
56667;SDS011;42542;48.360;10.958;2023-01-01T01:05:31;210.95;;;90.20;;
56667;SDS011;42542;48.360;10.958;2023-01-01T01:08:35;217.10;;;91.07;;
56667;SDS011;42542;48.360;10.958;2023-01-01T01:11:38;214.30;;;87.17;;
56667;SDS011;42542;48.360;10.958;2023-01-01T01:14:40;175.77;;;75.68;;
56667;SDS011;42542;48.360;10.958;2023-01-01T01:17:41;157.45;;;64.97;;
56667;SDS011;42542;48.360;10.958;2023-01-01T01:20:48;155.37;;;63.20;;
56667;SDS011;42542;48.360;10.958;2023-01-01T01:23:53;153.07;;;61.78;;
56667;SDS011;42542;48.360;10.958;2023-01-01T01:26:55;160.82;;;66.90;;
56667;SDS011;42542;48.360;10.958;2023-01-01T01:29:56;160.23;;;67.68;;
56667;SDS011;42542;48.360;10.958;2023-01-01T01:32:58;159.00;;;68.00;;
56667;SDS011;42542;48.360;10.958;2023-01-01T01:36:00;159.63;;;68.45;;
56667;SDS011;42542;48.360;10.958;2023-01-01T01:39:01;161.13;;;69.47;;
56667;SDS011;42542;48.360;10.958;2023-01-01T01:42:03;156.17;;;67.03;;
56667;SDS011;42542;48.360;10.958;2023-01-01T01:45:05;165.80;;;71.57;;
56667;SDS011;42542;48.360;10.958;2023-01-01T01:48:07;173.05;;;74.20;;
56667;SDS011;42542;48.360;10.958;2023-01-01T01:51:10;171.47;;;73.47;;
56667;SDS011;42542;48.360;10.958;2023-01-01T01:54:16;176.88;;;75.78;;
56667;SDS011;42542;48.360;10.958;2023-01-01T01:57:21;173.52;;;75.13;;
56667;SDS011;42542;48.360;10.958;2023-01-01T02:00:24;168.75;;;73.93;;
56667;SDS011;42542;48.360;10.958;2023-01-01T02:06:51;159.73;;;67.68;;
56667;SDS011;42542;48.360;10.958;2023-01-01T02:09:56;155.25;;;65.97;;
56667;SDS011;42542;48.360;10.958;2023-01-01T02:12:58;146.83;;;62.10;;
56667;SDS011;42542;48.360;10.958;2023-01-01T02:16:08;140.85;;;60.00;;
56667;SDS011;42542;48.360;10.958;2023-01-01T02:19:17;130.77;;;54.38;;
56667;SDS011;42542;48.360;10.958;2023-01-01T02:35:22;119.78;;;50.50;;
56667;SDS011;42542;48.360;10.958;2023-01-01T02:38:38;114.00;;;48.78;;
56667;SDS011;42542;48.360;10.958;2023-01-01T02:41:46;109.60;;;47.20;;
56667;SDS011;42542;48.360;10.958;2023-01-01T02:44:51;107.33;;;44.53;;
56667;SDS011;42542;48.360;10.958;2023-01-01T02:47:56;102.20;;;43.13;;
56667;SDS011;42542;48.360;10.958;2023-01-01T02:50:58;101.45;;;43.17;;
56667;SDS011;42542;48.360;10.958;2023-01-01T03:00:32;102.50;;;43.40;;
56667;SDS011;42542;48.360;10.958;2023-01-01T03:03:39;98.55;;;42.63;;
56667;SDS011;42542;48.360;10.958;2023-01-01T03:07:01;94.85;;;41.90;;
56667;SDS011;42542;48.360;10.958;2023-01-01T03:10:16;101.15;;;42.45;;
56667;SDS011;42542;48.360;10.958;2023-01-01T03:13:26;98.60;;;40.88;;
56667;SDS011;42542;48.360;10.958;2023-01-01T03:19:41;89.80;;;39.10;;
56667;SDS011;42542;48.360;10.958;2023-01-01T03:22:45;91.03;;;39.15;;
56667;SDS011;42542;48.360;10.958;2023-01-01T03:25:50;91.93;;;38.87;;
56667;SDS011;42542;48.360;10.958;2023-01-01T03:28:55;84.63;;;38.63;;
56667;SDS011;42542;48.360;10.958;2023-01-01T03:31:59;92.15;;;38.63;;
56667;SDS011;42542;48.360;10.958;2023-01-01T03:35:05;85.35;;;36.60;;
56667;SDS011;42542;48.360;10.958;2023-01-01T03:38:08;85.05;;;36.80;;
56667;SDS011;42542;48.360;10.958;2023-01-01T03:41:21;85.07;;;36.95;;
56667;SDS011;42542;48.360;10.958;2023-01-01T03:44:31;81.43;;;35.65;;
56667;SDS011;42542;48.360;10.958;2023-01-01T03:47:36;80.37;;;34.87;;
56667;SDS011;42542;48.360;10.958;2023-01-01T03:53:59;76.35;;;32.92;;
56667;SDS011;42542;48.360;10.958;2023-01-01T03:57:09;75.10;;;31.87;;
56667;SDS011;42542;48.360;10.958;2023-01-01T04:00:29;73.40;;;30.48;;
56667;SDS011;42542;48.360;10.958;2023-01-01T04:03:34;69.05;;;30.27;;
56667;SDS011;42542;48.360;10.958;2023-01-01T04:06:39;68.72;;;30.60;;
56667;SDS011;42542;48.360;10.958;2023-01-01T04:09:40;67.45;;;29.63;;
56667;SDS011;42542;48.360;10.958;2023-01-01T04:12:48;64.22;;;27.92;;
56667;SDS011;42542;48.360;10.958;2023-01-01T04:15:52;62.92;;;26.75;;
56667;SDS011;42542;48.360;10.958;2023-01-01T04:18:54;58.83;;;25.23;;
56667;SDS011;42542;48.360;10.958;2023-01-01T04:21:55;60.30;;;25.45;;
56667;SDS011;42542;48.360;10.958;2023-01-01T04:24:58;57.17;;;24.33;;
56667;SDS011;42542;48.360;10.958;2023-01-01T04:27:59;62.10;;;24.43;;
56667;SDS011;42542;48.360;10.958;2023-01-01T04:31:04;55.92;;;24.38;;
56667;SDS011;42542;48.360;10.958;2023-01-01T04:34:07;50.78;;;23.67;;
56667;SDS011;42542;48.360;10.958;2023-01-01T04:37:09;49.67;;;22.00;;
56667;SDS011;42542;48.360;10.958;2023-01-01T04:40:13;45.13;;;19.15;;
56667;SDS011;42542;48.360;10.958;2023-01-01T04:43:16;43.78;;;19.38;;
56667;SDS011;42542;48.360;10.958;2023-01-01T04:46:18;39.95;;;17.67;;
56667;SDS011;42542;48.360;10.958;2023-01-01T04:49:21;40.00;;;17.07;;
56667;SDS011;42542;48.360;10.958;2023-01-01T04:52:23;34.45;;;15.38;;
56667;SDS011;42542;48.360;10.958;2023-01-01T04:55:24;32.72;;;13.70;;
56667;SDS011;42542;48.360;10.958;2023-01-01T04:58:26;32.47;;;13.47;;
56667;SDS011;42542;48.360;10.958;2023-01-01T05:01:29;31.27;;;13.05;;
56667;SDS011;42542;48.360;10.958;2023-01-01T05:04:32;28.35;;;12.15;;
56667;SDS011;42542;48.360;10.958;2023-01-01T05:07:34;28.73;;;11.50;;
56667;SDS011;42542;48.360;10.958;2023-01-01T05:10:35;28.00;;;11.68;;
56667;SDS011;42542;48.360;10.958;2023-01-01T05:13:38;28.05;;;11.45;;
56667;SDS011;42542;48.360;10.958;2023-01-01T05:16:42;27.63;;;12.35;;
56667;SDS011;42542;48.360;10.958;2023-01-01T05:19:45;27.30;;;11.60;;
56667;SDS011;42542;48.360;10.958;2023-01-01T05:22:46;26.25;;;10.93;;
56667;SDS011;42542;48.360;10.958;2023-01-01T05:25:48;26.73;;;11.13;;
56667;SDS011;42542;48.360;10.958;2023-01-01T05:28:50;26.33;;;10.47;;
56667;SDS011;42542;48.360;10.958;2023-01-01T05:31:52;26.80;;;10.57;;
56667;SDS011;42542;48.360;10.958;2023-01-01T05:34:54;23.02;;;9.40;;
56667;SDS011;42542;48.360;10.958;2023-01-01T05:37:56;21.40;;;9.35;;
56667;SDS011;42542;48.360;10.958;2023-01-01T05:40:58;22.83;;;8.68;;
56667;SDS011;42542;48.360;10.958;2023-01-01T05:44:00;22.15;;;8.85;;
56667;SDS011;42542;48.360;10.958;2023-01-01T05:47:03;22.17;;;8.27;;
56667;SDS011;42542;48.360;10.958;2023-01-01T05:50:05;18.87;;;7.53;;
56667;SDS011;42542;48.360;10.958;2023-01-01T05:53:06;19.85;;;8.00;;
56667;SDS011;42542;48.360;10.958;2023-01-01T05:56:08;18.25;;;7.47;;
56667;SDS011;42542;48.360;10.958;2023-01-01T05:59:10;17.00;;;7.07;;
56667;SDS011;42542;48.360;10.958;2023-01-01T06:02:11;16.48;;;7.18;;
56667;SDS011;42542;48.360;10.958;2023-01-01T06:05:13;15.82;;;6.75;;
56667;SDS011;42542;48.360;10.958;2023-01-01T06:08:15;17.05;;;6.35;;
56667;SDS011;42542;48.360;10.958;2023-01-01T06:11:17;15.80;;;6.78;;
56667;SDS011;42542;48.360;10.958;2023-01-01T06:14:19;15.05;;;5.82;;
56667;SDS011;42542;48.360;10.958;2023-01-01T06:17:20;14.40;;;5.93;;
56667;SDS011;42542;48.360;10.958;2023-01-01T06:20:23;16.60;;;6.20;;
56667;SDS011;42542;48.360;10.958;2023-01-01T06:23:25;14.95;;;6.18;;
56667;SDS011;42542;48.360;10.958;2023-01-01T06:26:29;14.07;;;5.78;;
56667;SDS011;42542;48.360;10.958;2023-01-01T06:29:33;13.27;;;5.60;;
56667;SDS011;42542;48.360;10.958;2023-01-01T06:32:35;12.57;;;4.90;;
56667;SDS011;42542;48.360;10.958;2023-01-01T06:35:37;11.90;;;4.80;;
56667;SDS011;42542;48.360;10.958;2023-01-01T06:38:40;12.80;;;4.78;;
56667;SDS011;42542;48.360;10.958;2023-01-01T06:41:43;14.88;;;5.10;;
56667;SDS011;42542;48.360;10.958;2023-01-01T06:44:46;12.45;;;4.68;;
56667;SDS011;42542;48.360;10.958;2023-01-01T06:47:47;14.55;;;5.10;;
56667;SDS011;42542;48.360;10.958;2023-01-01T06:50:50;10.53;;;4.37;;
56667;SDS011;42542;48.360;10.958;2023-01-01T06:53:51;13.00;;;4.97;;
56667;SDS011;42542;48.360;10.958;2023-01-01T06:56:54;14.85;;;5.20;;
56667;SDS011;42542;48.360;10.958;2023-01-01T06:59:56;13.10;;;4.80;;
56667;SDS011;42542;48.360;10.958;2023-01-01T07:02:57;13.90;;;4.70;;
56667;SDS011;42542;48.360;10.958;2023-01-01T07:05:59;12.05;;;4.53;;
56667;SDS011;42542;48.360;10.958;2023-01-01T07:09:02;12.98;;;4.53;;
56667;SDS011;42542;48.360;10.958;2023-01-01T07:12:08;11.73;;;4.57;;
56667;SDS011;42542;48.360;10.958;2023-01-01T07:15:11;12.68;;;4.75;;
56667;SDS011;42542;48.360;10.958;2023-01-01T07:18:12;10.93;;;4.35;;
56667;SDS011;42542;48.360;10.958;2023-01-01T07:21:23;10.10;;;4.23;;
56667;SDS011;42542;48.360;10.958;2023-01-01T07:24:46;11.55;;;4.38;;
56667;SDS011;42542;48.360;10.958;2023-01-01T07:27:49;11.32;;;4.47;;
56667;SDS011;42542;48.360;10.958;2023-01-01T07:30:50;11.83;;;4.60;;
56667;SDS011;42542;48.360;10.958;2023-01-01T07:33:56;11.98;;;4.47;;
56667;SDS011;42542;48.360;10.958;2023-01-01T07:36:58;11.35;;;4.30;;
56667;SDS011;42542;48.360;10.958;2023-01-01T07:39:59;12.23;;;4.90;;
56667;SDS011;42542;48.360;10.958;2023-01-01T07:43:01;11.43;;;4.50;;
56667;SDS011;42542;48.360;10.958;2023-01-01T07:46:04;11.25;;;4.57;;
56667;SDS011;42542;48.360;10.958;2023-01-01T07:49:05;11.75;;;4.65;;
56667;SDS011;42542;48.360;10.958;2023-01-01T07:52:08;12.50;;;4.90;;
56667;SDS011;42542;48.360;10.958;2023-01-01T07:55:14;11.40;;;4.90;;
56667;SDS011;42542;48.360;10.958;2023-01-01T07:58:17;11.95;;;4.53;;
56667;SDS011;42542;48.360;10.958;2023-01-01T08:01:18;11.50;;;4.73;;
56667;SDS011;42542;48.360;10.958;2023-01-01T08:04:20;12.23;;;4.82;;
56667;SDS011;42542;48.360;10.958;2023-01-01T08:07:23;12.80;;;4.90;;
56667;SDS011;42542;48.360;10.958;2023-01-01T08:10:24;11.00;;;4.35;;
56667;SDS011;42542;48.360;10.958;2023-01-01T08:13:26;11.57;;;4.47;;
56667;SDS011;42542;48.360;10.958;2023-01-01T08:16:28;11.45;;;4.47;;
56667;SDS011;42542;48.360;10.958;2023-01-01T08:19:29;12.38;;;4.70;;
56667;SDS011;42542;48.360;10.958;2023-01-01T08:22:31;12.83;;;4.77;;
56667;SDS011;42542;48.360;10.958;2023-01-01T08:25:33;10.45;;;4.28;;
56667;SDS011;42542;48.360;10.958;2023-01-01T08:28:35;14.27;;;4.63;;
56667;SDS011;42542;48.360;10.958;2023-01-01T08:31:37;13.07;;;4.67;;
56667;SDS011;42542;48.360;10.958;2023-01-01T08:34:39;11.52;;;4.30;;
56667;SDS011;42542;48.360;10.958;2023-01-01T08:37:41;14.02;;;5.07;;
56667;SDS011;42542;48.360;10.958;2023-01-01T08:40:43;13.20;;;4.68;;
56667;SDS011;42542;48.360;10.958;2023-01-01T08:43:44;12.15;;;4.70;;
56667;SDS011;42542;48.360;10.958;2023-01-01T08:46:46;12.15;;;4.68;;
56667;SDS011;42542;48.360;10.958;2023-01-01T08:49:48;12.65;;;4.82;;
56667;SDS011;42542;48.360;10.958;2023-01-01T08:52:51;15.43;;;4.67;;
56667;SDS011;42542;48.360;10.958;2023-01-01T08:55:57;13.00;;;5.10;;
56667;SDS011;42542;48.360;10.958;2023-01-01T08:59:00;12.40;;;4.97;;
56667;SDS011;42542;48.360;10.958;2023-01-01T09:02:05;12.57;;;5.00;;
56667;SDS011;42542;48.360;10.958;2023-01-01T09:05:08;10.98;;;4.95;;
56667;SDS011;42542;48.360;10.958;2023-01-01T09:08:10;13.85;;;5.40;;
56667;SDS011;42542;48.360;10.958;2023-01-01T09:11:17;12.60;;;5.47;;
56667;SDS011;42542;48.360;10.958;2023-01-01T09:14:23;12.55;;;5.10;;
56667;SDS011;42542;48.360;10.958;2023-01-01T09:17:25;13.50;;;4.72;;
56667;SDS011;42542;48.360;10.958;2023-01-01T09:20:27;10.27;;;4.20;;
56667;SDS011;42542;48.360;10.958;2023-01-01T09:23:29;11.40;;;3.73;;
56667;SDS011;42542;48.360;10.958;2023-01-01T09:26:31;11.32;;;4.50;;
56667;SDS011;42542;48.360;10.958;2023-01-01T09:29:33;19.13;;;7.13;;
56667;SDS011;42542;48.360;10.958;2023-01-01T09:32:35;15.07;;;6.10;;
56667;SDS011;42542;48.360;10.958;2023-01-01T09:35:36;11.45;;;4.53;;
56667;SDS011;42542;48.360;10.958;2023-01-01T09:38:39;9.02;;;3.15;;
56667;SDS011;42542;48.360;10.958;2023-01-01T09:45:08;10.07;;;3.08;;
56667;SDS011;42542;48.360;10.958;2023-01-01T09:48:21;8.48;;;2.95;;
56667;SDS011;42542;48.360;10.958;2023-01-01T09:51:29;9.93;;;3.50;;
56667;SDS011;42542;48.360;10.958;2023-01-01T09:55:01;10.40;;;4.40;;
56667;SDS011;42542;48.360;10.958;2023-01-01T09:58:10;8.95;;;3.80;;
56667;SDS011;42542;48.360;10.958;2023-01-01T10:01:17;9.38;;;3.47;;
56667;SDS011;42542;48.360;10.958;2023-01-01T10:04:25;10.60;;;4.70;;
56667;SDS011;42542;48.360;10.958;2023-01-01T10:10:48;7.25;;;2.70;;
56667;SDS011;42542;48.360;10.958;2023-01-01T10:13:58;7.00;;;2.50;;
56667;SDS011;42542;48.360;10.958;2023-01-01T10:17:03;8.75;;;3.30;;
56667;SDS011;42542;48.360;10.958;2023-01-01T10:20:21;10.50;;;3.40;;
56667;SDS011;42542;48.360;10.958;2023-01-01T10:23:28;7.80;;;2.63;;
56667;SDS011;42542;48.360;10.958;2023-01-01T10:26:38;8.20;;;3.00;;
56667;SDS011;42542;48.360;10.958;2023-01-01T10:29:41;6.97;;;2.33;;
56667;SDS011;42542;48.360;10.958;2023-01-01T10:32:47;6.80;;;2.60;;
56667;SDS011;42542;48.360;10.958;2023-01-01T10:35:51;7.28;;;2.60;;
56667;SDS011;42542;48.360;10.958;2023-01-01T10:38:59;8.45;;;2.40;;
56667;SDS011;42542;48.360;10.958;2023-01-01T10:42:01;9.50;;;3.22;;
56667;SDS011;42542;48.360;10.958;2023-01-01T10:45:04;8.20;;;2.53;;
56667;SDS011;42542;48.360;10.958;2023-01-01T10:48:22;6.70;;;2.20;;
56667;SDS011;42542;48.360;10.958;2023-01-01T10:51:26;8.57;;;3.28;;
56667;SDS011;42542;48.360;10.958;2023-01-01T10:54:31;7.75;;;2.80;;
56667;SDS011;42542;48.360;10.958;2023-01-01T10:57:36;8.38;;;3.10;;
56667;SDS011;42542;48.360;10.958;2023-01-01T11:00:39;9.93;;;3.47;;
56667;SDS011;42542;48.360;10.958;2023-01-01T11:03:51;7.70;;;3.00;;
56667;SDS011;42542;48.360;10.958;2023-01-01T11:07:05;9.40;;;3.30;;
56667;SDS011;42542;48.360;10.958;2023-01-01T11:10:14;7.70;;;2.80;;
56667;SDS011;42542;48.360;10.958;2023-01-01T11:13:20;8.87;;;3.37;;
56667;SDS011;42542;48.360;10.958;2023-01-01T11:16:22;7.40;;;2.92;;
56667;SDS011;42542;48.360;10.958;2023-01-01T11:19:29;9.85;;;2.90;;
56667;SDS011;42542;48.360;10.958;2023-01-01T11:22:40;8.20;;;2.70;;
56667;SDS011;42542;48.360;10.958;2023-01-01T11:25:56;10.57;;;3.30;;
56667;SDS011;42542;48.360;10.958;2023-01-01T11:29:14;7.13;;;2.50;;
56667;SDS011;42542;48.360;10.958;2023-01-01T11:32:33;9.68;;;2.60;;
56667;SDS011;42542;48.360;10.958;2023-01-01T11:35:46;9.68;;;2.45;;
56667;SDS011;42542;48.360;10.958;2023-01-01T11:39:03;8.97;;;3.10;;
56667;SDS011;42542;48.360;10.958;2023-01-01T11:42:06;7.88;;;2.50;;
56667;SDS011;42542;48.360;10.958;2023-01-01T11:45:13;5.60;;;1.85;;
56667;SDS011;42542;48.360;10.958;2023-01-01T11:48:16;6.47;;;1.95;;
56667;SDS011;42542;48.360;10.958;2023-01-01T11:51:27;6.83;;;1.87;;
56667;SDS011;42542;48.360;10.958;2023-01-01T11:54:34;5.43;;;1.80;;
56667;SDS011;42542;48.360;10.958;2023-01-01T11:57:39;6.38;;;1.70;;
56667;SDS011;42542;48.360;10.958;2023-01-01T12:00:44;7.05;;;1.60;;
56667;SDS011;42542;48.360;10.958;2023-01-01T12:03:50;5.73;;;1.70;;
56667;SDS011;42542;48.360;10.958;2023-01-01T12:07:12;4.80;;;1.40;;
56667;SDS011;42542;48.360;10.958;2023-01-01T12:10:39;6.28;;;1.70;;
56667;SDS011;42542;48.360;10.958;2023-01-01T12:13:49;7.28;;;1.80;;
56667;SDS011;42542;48.360;10.958;2023-01-01T12:20:31;5.60;;;1.80;;
56667;SDS011;42542;48.360;10.958;2023-01-01T12:23:37;5.72;;;1.58;;
56667;SDS011;42542;48.360;10.958;2023-01-01T12:33:55;5.80;;;1.60;;
56667;SDS011;42542;48.360;10.958;2023-01-01T12:37:12;6.30;;;1.70;;
56667;SDS011;42542;48.360;10.958;2023-01-01T12:50:14;6.53;;;1.50;;
56667;SDS011;42542;48.360;10.958;2023-01-01T12:53:26;5.30;;;1.60;;
56667;SDS011;42542;48.360;10.958;2023-01-01T12:56:34;5.50;;;1.58;;
56667;SDS011;42542;48.360;10.958;2023-01-01T12:59:46;6.27;;;1.80;;
56667;SDS011;42542;48.360;10.958;2023-01-01T13:02:51;6.18;;;1.70;;
56667;SDS011;42542;48.360;10.958;2023-01-01T13:06:03;7.00;;;1.70;;
56667;SDS011;42542;48.360;10.958;2023-01-01T13:09:09;6.28;;;1.70;;
56667;SDS011;42542;48.360;10.958;2023-01-01T13:12:16;5.47;;;1.67;;
56667;SDS011;42542;48.360;10.958;2023-01-01T13:15:42;6.45;;;2.08;;
56667;SDS011;42542;48.360;10.958;2023-01-01T13:18:57;10.05;;;1.60;;
56667;SDS011;42542;48.360;10.958;2023-01-01T13:25:27;5.60;;;1.60;;
56667;SDS011;42542;48.360;10.958;2023-01-01T13:32:13;5.47;;;1.50;;
56667;SDS011;42542;48.360;10.958;2023-01-01T13:35:15;4.90;;;1.50;;
56667;SDS011;42542;48.360;10.958;2023-01-01T13:41:48;6.90;;;1.77;;
56667;SDS011;42542;48.360;10.958;2023-01-01T13:44:50;5.55;;;1.50;;
56667;SDS011;42542;48.360;10.958;2023-01-01T13:51:25;5.53;;;1.50;;
56667;SDS011;42542;48.360;10.958;2023-01-01T13:55:28;7.13;;;1.67;;
56667;SDS011;42542;48.360;10.958;2023-01-01T13:58:44;8.97;;;1.77;;
56667;SDS011;42542;48.360;10.958;2023-01-01T14:05:32;5.50;;;1.52;;
56667;SDS011;42542;48.360;10.958;2023-01-01T14:30:23;6.43;;;1.90;;
56667;SDS011;42542;48.360;10.958;2023-01-01T14:33:27;7.78;;;2.90;;
56667;SDS011;42542;48.360;10.958;2023-01-01T14:36:30;7.93;;;2.80;;
56667;SDS011;42542;48.360;10.958;2023-01-01T14:39:33;9.55;;;2.70;;
56667;SDS011;42542;48.360;10.958;2023-01-01T14:42:36;7.65;;;2.50;;
56667;SDS011;42542;48.360;10.958;2023-01-01T14:45:41;6.53;;;2.30;;
56667;SDS011;42542;48.360;10.958;2023-01-01T14:48:44;9.52;;;2.58;;
56667;SDS011;42542;48.360;10.958;2023-01-01T14:51:52;8.93;;;2.22;;
56667;SDS011;42542;48.360;10.958;2023-01-01T14:54:58;6.78;;;2.35;;
56667;SDS011;42542;48.360;10.958;2023-01-01T14:58:01;9.07;;;2.30;;
56667;SDS011;42542;48.360;10.958;2023-01-01T15:01:14;7.63;;;2.30;;
56667;SDS011;42542;48.360;10.958;2023-01-01T15:04:27;6.03;;;2.20;;
56667;SDS011;42542;48.360;10.958;2023-01-01T15:07:29;6.97;;;2.20;;
56667;SDS011;42542;48.360;10.958;2023-01-01T15:10:33;10.77;;;2.78;;
56667;SDS011;42542;48.360;10.958;2023-01-01T15:13:38;7.75;;;2.33;;
56667;SDS011;42542;48.360;10.958;2023-01-01T15:16:40;9.47;;;2.60;;
56667;SDS011;42542;48.360;10.958;2023-01-01T15:19:43;6.90;;;2.25;;
56667;SDS011;42542;48.360;10.958;2023-01-01T15:22:46;8.77;;;2.42;;
56667;SDS011;42542;48.360;10.958;2023-01-01T15:25:49;7.05;;;2.47;;
56667;SDS011;42542;48.360;10.958;2023-01-01T15:28:51;6.80;;;2.40;;
56667;SDS011;42542;48.360;10.958;2023-01-01T15:31:54;7.88;;;2.60;;
56667;SDS011;42542;48.360;10.958;2023-01-01T15:34:59;8.13;;;2.92;;
56667;SDS011;42542;48.360;10.958;2023-01-01T15:38:10;7.13;;;2.97;;
56667;SDS011;42542;48.360;10.958;2023-01-01T15:41:24;11.20;;;4.60;;
56667;SDS011;42542;48.360;10.958;2023-01-01T15:44:47;11.48;;;5.00;;
56667;SDS011;42542;48.360;10.958;2023-01-01T15:47:50;13.80;;;5.20;;
56667;SDS011;42542;48.360;10.958;2023-01-01T15:50:58;16.88;;;6.93;;
56667;SDS011;42542;48.360;10.958;2023-01-01T15:54:12;15.17;;;6.77;;
56667;SDS011;42542;48.360;10.958;2023-01-01T15:57:19;20.20;;;8.48;;
56667;SDS011;42542;48.360;10.958;2023-01-01T16:00:27;22.15;;;9.30;;
56667;SDS011;42542;48.360;10.958;2023-01-01T16:03:31;18.65;;;8.48;;
56667;SDS011;42542;48.360;10.958;2023-01-01T16:06:53;18.83;;;8.60;;
56667;SDS011;42542;48.360;10.958;2023-01-01T16:09:58;16.05;;;7.00;;
56667;SDS011;42542;48.360;10.958;2023-01-01T16:13:00;18.50;;;7.22;;
56667;SDS011;42542;48.360;10.958;2023-01-01T16:16:02;13.93;;;5.28;;
56667;SDS011;42542;48.360;10.958;2023-01-01T16:19:05;13.02;;;4.57;;
56667;SDS011;42542;48.360;10.958;2023-01-01T16:22:12;10.88;;;4.25;;
56667;SDS011;42542;48.360;10.958;2023-01-01T16:25:17;10.07;;;3.85;;
56667;SDS011;42542;48.360;10.958;2023-01-01T16:28:20;9.03;;;3.30;;
56667;SDS011;42542;48.360;10.958;2023-01-01T16:31:24;9.02;;;3.15;;
56667;SDS011;42542;48.360;10.958;2023-01-01T16:34:30;10.00;;;3.97;;
56667;SDS011;42542;48.360;10.958;2023-01-01T16:37:33;8.10;;;3.50;;
56667;SDS011;42542;48.360;10.958;2023-01-01T16:40:34;8.50;;;3.40;;
56667;SDS011;42542;48.360;10.958;2023-01-01T16:43:38;9.88;;;4.18;;
56667;SDS011;42542;48.360;10.958;2023-01-01T16:46:41;8.82;;;3.90;;
56667;SDS011;42542;48.360;10.958;2023-01-01T16:49:44;10.65;;;3.90;;
56667;SDS011;42542;48.360;10.958;2023-01-01T16:52:46;12.98;;;3.80;;
56667;SDS011;42542;48.360;10.958;2023-01-01T16:55:51;9.63;;;3.95;;
56667;SDS011;42542;48.360;10.958;2023-01-01T16:58:53;11.93;;;3.80;;
56667;SDS011;42542;48.360;10.958;2023-01-01T17:02:03;8.80;;;3.70;;
56667;SDS011;42542;48.360;10.958;2023-01-01T17:05:05;10.88;;;4.20;;
56667;SDS011;42542;48.360;10.958;2023-01-01T17:08:11;10.90;;;4.72;;
56667;SDS011;42542;48.360;10.958;2023-01-01T17:11:13;13.00;;;5.50;;
56667;SDS011;42542;48.360;10.958;2023-01-01T17:14:18;18.38;;;8.00;;
56667;SDS011;42542;48.360;10.958;2023-01-01T17:17:19;18.10;;;7.65;;
56667;SDS011;42542;48.360;10.958;2023-01-01T17:20:21;20.08;;;9.07;;
56667;SDS011;42542;48.360;10.958;2023-01-01T17:23:23;24.92;;;10.40;;
56667;SDS011;42542;48.360;10.958;2023-01-01T17:26:26;26.65;;;11.43;;
56667;SDS011;42542;48.360;10.958;2023-01-01T17:29:27;27.98;;;12.05;;
56667;SDS011;42542;48.360;10.958;2023-01-01T17:32:29;27.83;;;12.03;;
56667;SDS011;42542;48.360;10.958;2023-01-01T17:35:35;25.45;;;11.27;;
56667;SDS011;42542;48.360;10.958;2023-01-01T17:38:38;25.35;;;11.32;;
56667;SDS011;42542;48.360;10.958;2023-01-01T17:41:41;24.08;;;10.52;;
56667;SDS011;42542;48.360;10.958;2023-01-01T17:44:43;20.98;;;9.98;;
56667;SDS011;42542;48.360;10.958;2023-01-01T17:47:46;22.33;;;10.25;;
56667;SDS011;42542;48.360;10.958;2023-01-01T17:50:48;20.58;;;9.52;;
56667;SDS011;42542;48.360;10.958;2023-01-01T17:53:50;21.63;;;9.30;;
56667;SDS011;42542;48.360;10.958;2023-01-01T17:56:52;21.20;;;10.18;;
56667;SDS011;42542;48.360;10.958;2023-01-01T17:59:55;20.77;;;9.77;;
56667;SDS011;42542;48.360;10.958;2023-01-01T18:02:59;19.20;;;10.10;;
56667;SDS011;42542;48.360;10.958;2023-01-01T18:06:01;24.83;;;10.60;;
56667;SDS011;42542;48.360;10.958;2023-01-01T18:09:04;21.67;;;10.85;;
56667;SDS011;42542;48.360;10.958;2023-01-01T18:12:07;20.40;;;10.00;;
56667;SDS011;42542;48.360;10.958;2023-01-01T18:15:11;24.25;;;10.70;;
56667;SDS011;42542;48.360;10.958;2023-01-01T18:18:13;19.10;;;9.18;;
56667;SDS011;42542;48.360;10.958;2023-01-01T18:21:16;19.30;;;9.60;;
56667;SDS011;42542;48.360;10.958;2023-01-01T18:24:21;21.23;;;9.43;;
56667;SDS011;42542;48.360;10.958;2023-01-01T18:27:23;22.73;;;9.88;;
56667;SDS011;42542;48.360;10.958;2023-01-01T18:30:24;23.13;;;9.48;;
56667;SDS011;42542;48.360;10.958;2023-01-01T18:33:27;24.60;;;10.90;;
56667;SDS011;42542;48.360;10.958;2023-01-01T18:36:29;27.83;;;11.80;;
56667;SDS011;42542;48.360;10.958;2023-01-01T18:39:33;25.67;;;10.85;;
56667;SDS011;42542;48.360;10.958;2023-01-01T18:46:06;28.08;;;12.38;;
56667;SDS011;42542;48.360;10.958;2023-01-01T18:49:21;26.40;;;12.30;;
56667;SDS011;42542;48.360;10.958;2023-01-01T18:52:26;28.50;;;11.77;;
56667;SDS011;42542;48.360;10.958;2023-01-01T18:55:29;34.93;;;12.83;;
56667;SDS011;42542;48.360;10.958;2023-01-01T18:58:35;29.83;;;12.45;;
56667;SDS011;42542;48.360;10.958;2023-01-01T19:01:36;33.25;;;13.32;;
56667;SDS011;42542;48.360;10.958;2023-01-01T19:04:39;31.80;;;12.83;;
56667;SDS011;42542;48.360;10.958;2023-01-01T19:07:40;32.83;;;12.23;;
56667;SDS011;42542;48.360;10.958;2023-01-01T19:13:49;23.90;;;9.15;;
56667;SDS011;42542;48.360;10.958;2023-01-01T19:16:58;22.90;;;9.18;;
56667;SDS011;42542;48.360;10.958;2023-01-01T19:20:05;19.63;;;8.10;;
56667;SDS011;42542;48.360;10.958;2023-01-01T19:23:29;19.33;;;8.05;;
56667;SDS011;42542;48.360;10.958;2023-01-01T19:26:36;17.63;;;7.73;;
56667;SDS011;42542;48.360;10.958;2023-01-01T19:29:42;17.55;;;7.63;;
56667;SDS011;42542;48.360;10.958;2023-01-01T19:32:46;17.58;;;8.00;;
56667;SDS011;42542;48.360;10.958;2023-01-01T19:35:49;16.30;;;7.13;;
56667;SDS011;42542;48.360;10.958;2023-01-01T19:38:50;17.38;;;7.63;;
56667;SDS011;42542;48.360;10.958;2023-01-01T19:41:52;17.00;;;7.80;;